Time;durP1;ratioP1;P1;durP2;ratioP2;P2;SDS_P1;SDS_P2;PMS_P1;PMS_P2;Temp;Humidity;BMP_temperature;BMP_pressure;BME280_temperature;BME280_humidity;BME280_pressure;Samples;Min_cycle;Max_cycle;Signal;HPM_P1;HPM_P2
2022/01/16 00:04:38;;;;;;;93.57;43.75;;;2.70;99.90;;;;;;5004006;28;20397;-81
2022/01/16 00:07:05;;;;;;;103.53;48.38;;;3.30;99.90;;;;;;4999427;28;20044;-81
2022/01/16 00:09:32;;;;;;;108.65;48.78;;;2.60;99.90;;;;;;5016214;28;20041;-81
2022/01/16 00:12:00;;;;;;;108.38;48.35;;;3.10;99.90;;;;;;5014917;28;20084;-81
2022/01/16 00:14:26;;;;;;;107.65;47.80;;;2.60;99.90;;;;;;5032151;28;20041;-81
2022/01/16 00:16:52;;;;;;;116.53;49.05;;;2.60;99.90;;;;;;4999598;28;20451;-81
2022/01/16 00:19:18;;;;;;;113.25;49.45;;;2.60;99.90;;;;;;5015735;28;20155;-81
2022/01/16 00:21:44;;;;;;;107.82;47.25;;;2.60;99.90;;;;;;4999060;28;20052;-81
2022/01/16 00:24:12;;;;;;;101.90;44.33;;;2.80;99.90;;;;;;4983479;28;20037;-81
2022/01/16 00:26:39;;;;;;;91.78;41.88;;;2.50;99.90;;;;;;5015737;28;20116;-81
2022/01/16 00:29:09;;;;;;;100.35;42.47;;;2.50;99.90;;;;;;4996470;28;20096;-81
2022/01/16 00:31:37;;;;;;;98.53;43.40;;;3.50;99.90;;;;;;4980416;28;20524;-81
2022/01/16 00:34:07;;;;;;;92.97;42.53;;;3.20;99.90;;;;;;5011633;28;20057;-81
2022/01/16 00:36:33;;;;;;;92.85;41.83;;;2.50;99.90;;;;;;4995635;28;20038;-81
2022/01/16 00:38:59;;;;;;;99.43;43.03;;;2.40;99.90;;;;;;4979660;28;20490;-81
2022/01/16 00:41:25;;;;;;;93.70;39.60;;;2.40;99.90;;;;;;4994759;28;20048;-81
2022/01/16 00:43:53;;;;;;;101.43;43.90;;;2.40;99.90;;;;;;4979747;28;20049;-81
2022/01/16 00:46:19;;;;;;;96.68;42.30;;;2.40;99.90;;;;;;4995512;28;20040;-81
2022/01/16 00:48:45;;;;;;;98.20;41.88;;;2.30;99.90;;;;;;5012650;28;20084;-81
2022/01/16 00:51:12;;;;;;;96.97;42.45;;;2.30;99.90;;;;;;5015138;28;20060;-81
2022/01/16 00:53:39;;;;;;;104.35;44.58;;;2.30;99.90;;;;;;5015279;28;20061;-81
2022/01/16 00:56:06;;;;;;;95.60;40.42;;;2.30;99.90;;;;;;5014728;28;20127;-81
2022/01/16 00:58:32;;;;;;;92.50;41.45;;;2.30;99.90;;;;;;5031153;28;20046;-81
2022/01/16 01:00:57;;;;;;;87.82;40.10;;;2.30;99.90;;;;;;5031714;28;20512;-81
2022/01/16 01:03:25;;;;;;;94.85;42.70;;;2.30;99.90;;;;;;5031909;28;20045;-81
2022/01/16 01:05:51;;;;;;;89.15;40.75;;;2.20;99.90;;;;;;5015081;28;20171;-81
2022/01/16 01:08:17;;;;;;;83.78;38.15;;;2.20;99.90;;;;;;5031894;28;20095;-81
2022/01/16 01:10:47;;;;;;;89.43;41.28;;;2.20;99.90;;;;;;5030567;28;20042;-81
2022/01/16 01:13:22;;;;;;;77.78;35.50;;;2.90;99.90;;;;;;5031868;28;20489;-81
2022/01/16 01:15:58;;;;;;;87.97;41.67;;;2.10;99.90;;;;;;5016502;28;20104;-81
2022/01/16 01:18:24;;;;;;;85.72;40.30;;;2.10;99.90;;;;;;5015253;28;20548;-81
2022/01/16 01:20:51;;;;;;;92.57;42.03;;;2.20;99.90;;;;;;5003787;28;20037;-81
2022/01/16 01:23:18;;;;;;;90.05;40.67;;;2.10;99.90;;;;;;5015296;28;20124;-81
2022/01/16 01:25:44;;;;;;;91.07;41.97;;;2.00;99.90;;;;;;5010620;28;20080;-81
2022/01/16 01:28:11;;;;;;;79.22;37.17;;;2.10;99.90;;;;;;5022469;28;20370;-81
2022/01/16 01:30:39;;;;;;;88.97;40.95;;;2.10;99.90;;;;;;5014696;28;20107;-81
2022/01/16 01:33:05;;;;;;;92.35;41.60;;;2.10;99.90;;;;;;5014931;28;20049;-81
2022/01/16 01:35:38;;;;;;;100.07;43.95;;;2.20;99.90;;;;;;5031151;28;20050;-81
2022/01/16 01:38:09;;;;;;;99.22;42.20;;;2.00;99.90;;;;;;5014997;28;20107;-81
2022/01/16 01:40:35;;;;;;;97.00;41.63;;;2.00;99.90;;;;;;4997707;28;20171;-81
2022/01/16 01:51:15;;;;;;;99.80;43.08;;;2.10;99.90;;;;;;5034977;28;20053;-80
2022/01/16 01:53:42;;;;;;;98.07;41.08;;;2.10;99.90;;;;;;5018337;28;20528;-80
2022/01/16 01:56:11;;;;;;;105.53;43.78;;;2.00;99.90;;;;;;5017451;28;20049;-80
2022/01/16 01:58:38;;;;;;;106.05;44.75;;;2.00;99.90;;;;;;5018326;28;20048;-80
2022/01/16 02:01:05;;;;;;;99.28;42.28;;;2.20;99.90;;;;;;5018086;28;20141;-80
2022/01/16 02:05:57;;;;;;;104.38;44.42;;;2.00;99.90;;;;;;5034681;28;20057;-80
2022/01/16 02:08:24;;;;;;;105.63;42.97;;;2.80;99.90;;;;;;5018339;28;20064;-80
2022/01/16 02:10:49;;;;;;;105.60;44.35;;;2.00;99.90;;;;;;5017392;28;20045;-80
2022/01/16 02:13:26;;;;;;;102.07;45.35;;;2.00;99.90;;;;;;5017917;28;20408;-80
2022/01/16 02:37:00;;;;;;;110.78;44.60;;;2.00;99.90;;;;;;5034188;28;20107;-81
2022/01/16 02:39:29;;;;;;;97.82;39.45;;;2.00;99.90;;;;;;5018167;28;20405;-81
2022/01/16 02:41:57;;;;;;;103.38;42.33;;;2.50;99.90;;;;;;5016457;28;20111;-81
2022/01/16 02:44:32;;;;;;;118.82;43.00;;;1.90;99.90;;;;;;5017365;28;20046;-81
2022/01/16 02:46:59;;;;;;;115.43;42.90;;;1.80;99.90;;;;;;5033702;28;20037;-81
2022/01/16 02:49:30;;;;;;;103.55;42.67;;;1.90;99.90;;;;;;5001131;28;20084;-81
2022/01/16 02:52:01;;;;;;;107.32;41.83;;;1.80;99.90;;;;;;5033462;28;20065;-81
2022/01/16 02:54:28;;;;;;;110.90;43.00;;;1.80;99.90;;;;;;5017308;28;20053;-81
2022/01/16 02:56:55;;;;;;;156.25;45.65;;;1.90;99.90;;;;;;4999617;28;20525;-81
2022/01/16 02:59:21;;;;;;;125.45;44.65;;;1.80;99.90;;;;;;5017331;28;20382;-81
2022/01/16 03:01:48;;;;;;;156.05;45.60;;;2.20;99.90;;;;;;5017091;28;20046;-81
2022/01/16 03:04:15;;;;;;;127.75;44.65;;;1.80;99.90;;;;;;5017414;28;20038;-81
2022/01/16 03:06:41;;;;;;;162.57;46.25;;;2.10;99.90;;;;;;5016899;28;20041;-81
2022/01/16 03:09:08;;;;;;;141.32;43.33;;;1.80;99.90;;;;;;5000719;28;20076;-81
2022/01/16 03:11:38;;;;;;;126.90;42.55;;;1.90;99.90;;;;;;5032497;28;20081;-81
2022/01/16 03:14:15;;;;;;;128.00;43.72;;;1.90;99.90;;;;;;5000858;28;20049;-81
2022/01/16 03:16:45;;;;;;;257.42;50.75;;;1.80;99.90;;;;;;5016630;28;20049;-82
2022/01/16 03:21:57;;;;;;;166.73;44.63;;;1.90;99.90;;;;;;5032940;28;20042;-82
2022/01/16 03:24:29;;;;;;;145.80;43.30;;;1.80;99.90;;;;;;5000899;28;20600;-81
2022/01/16 03:26:58;;;;;;;196.88;49.47;;;1.80;99.90;;;;;;5015359;28;20087;-81
2022/01/16 03:29:28;;;;;;;177.95;46.95;;;1.80;99.90;;;;;;5016631;28;20057;-81
2022/01/16 03:31:55;;;;;;;162.43;47.55;;;2.10;99.90;;;;;;5016620;28;20421;-81
2022/01/16 03:34:21;;;;;;;167.10;47.55;;;1.80;99.90;;;;;;5000355;28;20077;-81
2022/01/16 03:36:47;;;;;;;152.45;48.40;;;1.80;99.90;;;;;;5016229;28;20041;-81
2022/01/16 03:39:13;;;;;;;178.63;49.92;;;1.90;99.90;;;;;;5032796;28;20099;-81
2022/01/16 03:41:39;;;;;;;151.23;46.75;;;2.10;99.90;;;;;;5015347;28;20143;-81
2022/01/16 03:44:06;;;;;;;167.77;48.05;;;2.20;99.90;;;;;;5016671;28;20072;-81
2022/01/16 03:46:36;;;;;;;156.55;48.78;;;1.90;99.90;;;;;;4996122;28;20045;-81
2022/01/16 03:49:06;;;;;;;195.10;51.50;;;1.90;99.90;;;;;;4996631;28;20038;-81
2022/01/16 03:51:33;;;;;;;301.15;56.30;;;2.00;99.90;;;;;;5013347;28;20125;-81
2022/01/16 03:53:59;;;;;;;230.40;52.13;;;2.00;99.90;;;;;;5016198;28;20099;-81
2022/01/16 03:56:24;;;;;;;245.00;54.90;;;2.00;99.90;;;;;;5015021;28;20041;-81
2022/01/16 03:58:50;;;;;;;227.45;53.05;;;2.00;99.90;;;;;;5015947;28;20495;-81
2022/01/16 04:01:16;;;;;;;294.05;56.45;;;2.00;99.90;;;;;;5016085;28;20076;-81
2022/01/16 04:03:42;;;;;;;193.52;50.45;;;2.00;99.90;;;;;;5016024;28;20405;-81
2022/01/16 04:06:08;;;;;;;187.13;51.35;;;2.10;99.90;;;;;;5015677;28;20041;-81
2022/01/16 04:08:33;;;;;;;251.55;54.20;;;2.10;99.90;;;;;;4998816;28;20137;-81
2022/01/16 04:11:00;;;;;;;179.13;51.03;;;2.10;99.90;;;;;;5015179;28;20038;-81
2022/01/16 04:13:26;;;;;;;232.27;53.92;;;2.10;99.90;;;;;;5016112;28;20566;-81
2022/01/16 04:15:52;;;;;;;220.20;53.92;;;2.10;99.90;;;;;;5015892;28;20505;-81
2022/01/16 04:18:18;;;;;;;205.27;53.70;;;2.10;99.90;;;;;;5019166;28;20048;-81
2022/01/16 04:20:43;;;;;;;200.48;51.10;;;2.10;99.90;;;;;;5002392;28;20093;-81
2022/01/16 04:23:12;;;;;;;274.85;58.95;;;2.40;99.90;;;;;;5019243;28;20508;-81
2022/01/16 04:25:38;;;;;;;216.45;54.88;;;2.10;99.90;;;;;;5018536;28;20049;-81
2022/01/16 04:28:05;;;;;;;180.85;51.15;;;2.20;99.90;;;;;;5019001;28;20045;-81
2022/01/16 04:30:31;;;;;;;189.27;50.75;;;2.30;99.90;;;;;;5018547;28;20048;-81
2022/01/16 04:32:57;;;;;;;253.82;57.22;;;2.30;99.90;;;;;;5018996;28;20052;-81
2022/01/16 04:35:23;;;;;;;228.73;56.15;;;2.30;99.90;;;;;;5002223;28;20043;-81
2022/01/16 04:37:49;;;;;;;191.63;53.70;;;2.30;99.90;;;;;;5019035;28;20433;-81
2022/01/16 04:40:16;;;;;;;211.05;52.63;;;2.40;99.90;;;;;;5018428;28;20037;-81
2022/01/16 04:45:27;;;;;;;202.88;52.78;;;2.40;99.90;;;;;;5035144;28;20489;-81
2022/01/16 04:47:53;;;;;;;199.30;54.60;;;2.40;99.90;;;;;;5018646;28;20044;-81
2022/01/16 04:50:22;;;;;;;245.60;56.40;;;2.50;99.90;;;;;;5018336;28;20047;-82
2022/01/16 04:52:48;;;;;;;218.05;56.30;;;2.50;99.90;;;;;;5034662;28;20119;-81
2022/01/16 04:55:15;;;;;;;269.83;58.92;;;2.50;99.90;;;;;;5018655;28;20496;-81
2022/01/16 04:57:42;;;;;;;245.40;56.90;;;3.00;99.90;;;;;;5002239;28;20037;-81
2022/01/16 05:00:14;;;;;;;217.68;55.67;;;2.50;99.90;;;;;;5002200;28;20037;-81
2022/01/16 05:02:40;;;;;;;;;;;2.50;99.90;;;;;;5019235;28;20111;-81
2022/01/16 05:05:07;;;;;;;188.05;52.90;;;2.50;99.90;;;;;;5034972;28;20291;-81
2022/01/16 05:07:33;;;;;;;190.68;52.28;;;2.50;99.90;;;;;;5002061;28;20037;-81
2022/01/16 05:09:59;;;;;;;221.93;57.72;;;2.60;99.90;;;;;;5034879;28;20036;-81
2022/01/16 05:12:34;;;;;;;234.52;58.67;;;2.50;99.90;;;;;;5034192;28;20041;-81
2022/01/16 05:17:45;;;;;;;185.57;53.22;;;2.60;99.90;;;;;;5035158;28;20041;-81
2022/01/16 05:20:12;;;;;;;197.75;53.10;;;2.60;99.90;;;;;;5004093;28;20051;-81
2022/01/16 05:22:38;;;;;;;195.70;55.13;;;2.60;99.90;;;;;;5022751;28;20431;-81
2022/01/16 05:25:07;;;;;;;219.90;57.67;;;2.60;99.90;;;;;;5038907;28;20163;-81
2022/01/16 05:27:33;;;;;;;221.27;60.38;;;2.60;99.90;;;;;;5021345;28;20036;-81
2022/01/16 05:29:59;;;;;;;214.40;58.80;;;2.60;99.90;;;;;;5021865;28;20051;-81
2022/01/16 05:32:24;;;;;;;205.02;55.85;;;2.70;99.90;;;;;;5006042;28;20041;-81
2022/01/16 05:34:50;;;;;;;199.30;57.17;;;2.70;99.90;;;;;;4989578;28;20040;-81
2022/01/16 05:37:16;;;;;;;193.23;58.65;;;2.80;99.90;;;;;;5005403;28;20484;-81
2022/01/16 05:39:44;;;;;;;182.50;55.40;;;2.70;99.90;;;;;;5021937;28;20091;-81
2022/01/16 05:42:12;;;;;;;195.82;57.97;;;2.70;99.90;;;;;;5037351;28;20040;-81
2022/01/16 05:44:39;;;;;;;190.93;57.53;;;2.70;99.90;;;;;;5022531;28;20045;-81
2022/01/16 05:47:05;;;;;;;188.75;58.08;;;2.70;99.90;;;;;;5038439;28;20066;-81
2022/01/16 05:49:31;;;;;;;231.82;61.30;;;2.70;99.90;;;;;;5005451;28;20049;-81
2022/01/16 05:51:57;;;;;;;198.82;58.13;;;2.80;99.90;;;;;;5037860;28;20144;-81
2022/01/16 05:54:22;;;;;;;201.73;60.28;;;2.70;99.90;;;;;;4989318;28;20060;-81
2022/01/16 05:56:48;;;;;;;166.75;52.80;;;2.70;99.90;;;;;;5004609;28;20040;-81
2022/01/16 05:59:14;;;;;;;174.57;54.40;;;2.70;99.90;;;;;;5005183;28;20048;-81
2022/01/16 06:01:40;;;;;;;183.80;57.28;;;2.80;99.90;;;;;;5005015;28;20036;-81
2022/01/16 06:04:05;;;;;;;170.90;57.53;;;2.80;99.90;;;;;;5021330;28;20075;-81
2022/01/16 06:06:31;;;;;;;189.23;58.47;;;2.80;99.90;;;;;;5037910;28;20394;-81
2022/01/16 06:08:57;;;;;;;186.13;57.58;;;2.80;99.90;;;;;;5037266;28;20101;-81
2022/01/16 06:11:23;;;;;;;186.20;59.28;;;2.80;99.90;;;;;;5020724;28;20048;-81
2022/01/16 06:13:49;;;;;;;179.82;57.97;;;2.80;99.90;;;;;;5021360;28;20041;-81
2022/01/16 06:16:15;;;;;;;182.48;58.08;;;2.80;99.90;;;;;;5021367;28;20130;-81
2022/01/16 06:18:41;;;;;;;178.38;54.78;;;2.90;99.90;;;;;;5021269;28;20080;-81
2022/01/16 06:21:06;;;;;;;177.02;57.47;;;2.90;99.90;;;;;;5004673;28;20040;-81
2022/01/16 06:23:32;;;;;;;181.93;56.78;;;2.90;99.90;;;;;;5021286;28;20447;-81
2022/01/16 06:25:58;;;;;;;186.77;57.25;;;2.90;99.90;;;;;;5020027;28;20044;-81
2022/01/16 06:28:25;;;;;;;182.57;56.75;;;2.80;99.90;;;;;;5021181;28;20063;-81
2022/01/16 06:30:51;;;;;;;172.88;57.63;;;2.90;99.90;;;;;;5020103;28;20045;-81
2022/01/16 06:33:17;;;;;;;202.48;60.50;;;2.90;99.90;;;;;;5021045;28;20489;-81
2022/01/16 06:35:43;;;;;;;184.68;57.35;;;3.00;99.90;;;;;;5020733;28;20048;-81
2022/01/16 06:38:09;;;;;;;185.93;58.80;;;3.00;99.90;;;;;;5037225;28;20040;-81
2022/01/16 06:40:34;;;;;;;206.07;60.25;;;2.90;99.90;;;;;;5020314;28;20045;-81
2022/01/16 06:43:00;;;;;;;204.73;59.35;;;2.90;99.90;;;;;;5021072;28;20051;-81
2022/01/16 06:45:26;;;;;;;192.18;59.47;;;2.90;99.90;;;;;;5004228;28;20044;-81
2022/01/16 06:47:52;;;;;;;168.73;54.30;;;2.90;99.90;;;;;;5004210;28;20106;-81
2022/01/16 06:50:18;;;;;;;194.05;57.80;;;3.10;99.90;;;;;;5004058;28;20059;-81
2022/01/16 06:52:44;;;;;;;203.07;58.22;;;3.00;99.90;;;;;;5020367;28;20064;-81
2022/01/16 06:55:11;;;;;;;187.27;57.65;;;3.00;99.90;;;;;;5020841;28;20049;-81
2022/01/16 06:57:36;;;;;;;195.18;56.97;;;3.00;99.90;;;;;;4987322;28;20090;-81
2022/01/16 07:00:08;;;;;;;192.02;57.53;;;3.00;99.90;;;;;;5036682;28;20080;-81
2022/01/16 07:02:34;;;;;;;186.73;58.00;;;3.10;99.90;;;;;;5036771;28;20037;-81
2022/01/16 07:05:02;;;;;;;200.52;58.47;;;3.10;99.90;;;;;;5020490;28;20337;-81
2022/01/16 07:07:27;;;;;;;207.88;58.90;;;3.10;99.90;;;;;;5004009;28;20033;-81
2022/01/16 07:09:53;;;;;;;188.43;58.03;;;3.20;99.90;;;;;;5019715;28;20127;-81
2022/01/16 07:12:19;;;;;;;192.77;57.53;;;3.10;99.90;;;;;;5001017;28;20052;-81
2022/01/16 07:14:45;;;;;;;193.07;57.22;;;3.20;99.90;;;;;;5036264;28;20049;-81
2022/01/16 07:17:10;;;;;;;181.10;57.67;;;3.20;99.90;;;;;;5029907;28;20489;-81
2022/01/16 07:19:36;;;;;;;198.82;56.63;;;3.20;99.90;;;;;;4999983;28;20124;-81
2022/01/16 07:22:02;;;;;;;169.88;54.83;;;3.90;99.90;;;;;;5016013;28;20083;-81
2022/01/16 07:24:28;;;;;;;187.02;56.25;;;3.20;99.90;;;;;;5016229;28;20087;-81
2022/01/16 07:26:54;;;;;;;191.27;57.05;;;3.20;99.90;;;;;;5014061;28;20041;-81
2022/01/16 07:29:20;;;;;;;173.85;54.97;;;3.20;99.90;;;;;;5019717;28;20051;-81
2022/01/16 07:31:46;;;;;;;173.27;55.03;;;3.30;99.90;;;;;;5035674;28;20063;-81
2022/01/16 07:34:12;;;;;;;178.93;56.22;;;3.30;99.90;;;;;;5019564;28;20123;-81
2022/01/16 07:36:38;;;;;;;165.90;54.80;;;3.30;99.90;;;;;;5019312;28;20033;-81
2022/01/16 07:39:04;;;;;;;167.65;52.97;;;3.30;99.90;;;;;;5018819;28;20041;-81
2022/01/16 07:41:30;;;;;;;158.25;50.28;;;3.30;99.90;;;;;;5012838;28;20500;-81
2022/01/16 07:43:56;;;;;;;175.77;55.97;;;3.30;99.90;;;;;;5018813;28;20033;-81
2022/01/16 07:46:22;;;;;;;169.65;53.78;;;3.30;99.90;;;;;;5018772;28;20044;-81
2022/01/16 07:48:48;;;;;;;180.70;55.53;;;3.40;99.90;;;;;;5019163;28;20373;-81
2022/01/16 07:51:13;;;;;;;178.85;54.80;;;3.60;99.90;;;;;;5035939;28;20048;-81
2022/01/16 07:53:39;;;;;;;178.77;56.70;;;3.40;99.90;;;;;;5019359;28;20052;-81
2022/01/16 07:56:05;;;;;;;181.82;55.78;;;3.70;99.90;;;;;;5018469;28;20052;-81
2022/01/16 07:58:31;;;;;;;177.77;57.28;;;3.40;99.90;;;;;;5019695;28;20033;-81
2022/01/16 08:00:57;;;;;;;172.35;56.78;;;3.50;99.90;;;;;;5035524;28;20044;-81
2022/01/16 08:03:23;;;;;;;162.77;54.67;;;3.50;99.90;;;;;;5019528;28;20039;-81
2022/01/16 08:05:49;;;;;;;176.30;56.15;;;3.50;99.90;;;;;;5034704;28;20106;-81
2022/01/16 08:08:15;;;;;;;184.48;57.65;;;3.50;99.90;;;;;;5019113;28;20033;-81
2022/01/16 08:10:41;;;;;;;188.80;58.17;;;3.60;99.90;;;;;;5034062;28;20043;-81
2022/01/16 08:13:06;;;;;;;193.90;59.35;;;3.50;99.90;;;;;;5018539;28;20037;-81
2022/01/16 08:15:33;;;;;;;168.27;55.40;;;3.60;99.90;;;;;;5002716;28;20473;-81
2022/01/16 08:17:59;;;;;;;183.30;58.20;;;3.60;99.90;;;;;;5034837;28;20459;-81
2022/01/16 08:20:25;;;;;;;179.30;57.83;;;3.60;99.90;;;;;;5018526;28;20503;-81
2022/01/16 08:22:51;;;;;;;173.15;54.53;;;3.70;99.90;;;;;;5003868;28;20513;-81
2022/01/16 08:25:17;;;;;;;172.75;56.17;;;3.70;99.90;;;;;;5034657;28;20044;-81
2022/01/16 08:27:43;;;;;;;169.18;57.50;;;3.70;99.90;;;;;;5018405;28;20036;-81
2022/01/16 08:30:09;;;;;;;190.20;60.70;;;3.70;99.90;;;;;;5002844;28;20056;-81
2022/01/16 08:32:35;;;;;;;155.60;56.10;;;3.70;99.90;;;;;;5018750;28;20407;-81
2022/01/16 08:35:02;;;;;;;156.77;56.85;;;3.70;99.90;;;;;;5002655;28;20040;-81
2022/01/16 08:37:28;;;;;;;163.73;58.58;;;3.80;99.90;;;;;;4999316;28;20413;-81
2022/01/16 08:39:54;;;;;;;161.55;59.58;;;3.80;99.90;;;;;;5031742;28;20050;-81
2022/01/16 08:42:20;;;;;;;165.63;58.20;;;3.80;99.90;;;;;;5014464;28;20045;-81
2022/01/16 08:44:45;;;;;;;163.70;58.42;;;3.80;99.90;;;;;;4985637;28;20029;-81
2022/01/16 08:47:11;;;;;;;160.40;59.55;;;3.80;99.90;;;;;;5018047;28;20094;-81
2022/01/16 08:49:37;;;;;;;171.73;60.85;;;4.10;99.90;;;;;;4986526;28;20467;-81
2022/01/16 08:52:03;;;;;;;173.05;62.40;;;3.90;99.90;;;;;;4982230;28;20053;-81
2022/01/16 08:54:29;;;;;;;160.10;59.95;;;4.00;99.90;;;;;;5033963;28;20045;-81
2022/01/16 08:56:55;;;;;;;152.68;60.58;;;4.00;99.90;;;;;;5017452;28;20037;-81
2022/01/16 08:59:21;;;;;;;150.95;56.50;;;4.10;99.90;;;;;;5050675;28;20041;-81
2022/01/16 09:01:46;;;;;;;159.50;58.53;;;4.10;99.90;;;;;;5017884;28;20447;-81
2022/01/16 09:04:12;;;;;;;156.27;57.60;;;4.10;99.90;;;;;;5018656;28;20476;-81
2022/01/16 09:06:38;;;;;;;155.38;57.67;;;4.10;99.90;;;;;;5018336;28;20048;-81
2022/01/16 09:09:04;;;;;;;154.70;60.05;;;4.20;99.90;;;;;;5034676;28;20044;-81
2022/01/16 09:11:30;;;;;;;154.00;61.03;;;4.20;99.90;;;;;;5017529;28;20041;-81
2022/01/16 09:13:58;;;;;;;161.48;61.55;;;4.20;99.90;;;;;;5017984;28;20040;-81
2022/01/16 09:16:24;;;;;;;158.05;58.92;;;4.20;99.90;;;;;;5034147;28;20119;-81
2022/01/16 09:18:50;;;;;;;149.88;59.13;;;4.20;99.90;;;;;;5009816;28;20045;-81
2022/01/16 09:21:17;;;;;;;158.80;62.33;;;4.30;99.90;;;;;;5031051;28;20489;-81
2022/01/16 09:23:48;;;;;;;140.95;58.38;;;4.30;99.90;;;;;;5016002;28;20495;-81
2022/01/16 09:26:14;;;;;;;140.52;56.97;;;4.30;99.90;;;;;;5009590;28;20067;-81
2022/01/16 09:28:41;;;;;;;147.85;59.20;;;4.30;99.90;;;;;;5014601;28;20048;-81
2022/01/16 09:31:07;;;;;;;145.70;58.50;;;4.40;99.90;;;;;;5016865;28;20484;-81
2022/01/16 09:33:34;;;;;;;140.82;57.92;;;4.40;99.90;;;;;;5013393;28;20034;-81
2022/01/16 09:36:01;;;;;;;146.43;58.13;;;4.80;99.90;;;;;;5012208;28;20045;-81
2022/01/16 09:38:27;;;;;;;142.63;58.28;;;4.50;99.90;;;;;;5016228;28;20079;-82
2022/01/16 09:40:55;;;;;;;136.27;59.40;;;4.50;99.90;;;;;;5032224;28;20060;-81
2022/01/16 09:43:21;;;;;;;138.93;59.50;;;4.50;99.90;;;;;;5027668;28;20049;-81
2022/01/16 09:45:48;;;;;;;138.43;58.65;;;4.60;99.90;;;;;;5000998;28;20124;-81
2022/01/16 09:48:15;;;;;;;133.57;58.22;;;4.60;99.90;;;;;;4999569;28;20045;-81
2022/01/16 09:50:41;;;;;;;136.32;57.53;;;4.70;99.90;;;;;;5014711;28;20037;-81
2022/01/16 09:53:07;;;;;;;131.55;57.00;;;4.70;99.90;;;;;;5013950;28;20045;-81
2022/01/16 09:55:33;;;;;;;131.05;57.58;;;4.80;99.90;;;;;;5013616;28;20056;-81
2022/01/16 09:57:59;;;;;;;115.68;52.42;;;4.80;99.90;;;;;;5016110;28;20427;-81
2022/01/16 10:00:26;;;;;;;123.00;54.88;;;4.80;99.90;;;;;;5014690;28;20431;-81
2022/01/16 10:02:52;;;;;;;120.00;54.15;;;4.90;99.90;;;;;;4999321;28;20438;-81
2022/01/16 10:05:25;;;;;;;112.63;51.13;;;4.90;99.90;;;;;;5017477;28;20119;-81
2022/01/16 10:07:54;;;;;;;123.97;55.22;;;4.90;99.90;;;;;;5054193;28;20548;-81
2022/01/16 10:10:23;;;;;;;114.18;53.40;;;4.90;99.90;;;;;;5003461;28;20103;-81
2022/01/16 10:12:51;;;;;;;111.88;53.42;;;5.00;99.90;;;;;;4986022;28;20041;-81
2022/01/16 10:15:27;;;;;;;117.82;53.92;;;5.00;99.90;;;;;;5018109;28;20063;-81
2022/01/16 10:17:56;;;;;;;112.78;53.10;;;5.00;99.90;;;;;;5036943;28;20124;-81
2022/01/16 10:20:23;;;;;;;112.22;54.00;;;5.00;99.90;;;;;;5050862;28;20132;-81
2022/01/16 10:23:01;;;;;;;105.90;50.72;;;5.00;99.90;;;;;;5036709;28;20052;-81
2022/01/16 10:25:39;;;;;;;107.78;51.05;;;5.00;99.90;;;;;;5036172;28;20037;-81
2022/01/16 10:28:13;;;;;;;108.88;52.35;;;5.00;99.90;;;;;;5036836;28;20484;-81
2022/01/16 10:30:42;;;;;;;102.50;50.05;;;5.10;99.90;;;;;;5035416;28;20090;-81
2022/01/16 10:33:13;;;;;;;105.35;50.85;;;5.00;99.90;;;;;;5035669;28;20045;-81
2022/01/16 10:35:41;;;;;;;103.00;50.10;;;5.00;99.90;;;;;;5020395;28;20118;-81
2022/01/16 10:38:15;;;;;;;100.63;49.72;;;5.10;99.90;;;;;;5020164;28;20033;-81
2022/01/16 10:40:44;;;;;;;106.97;51.22;;;5.10;99.90;;;;;;5019028;28;20120;-81
2022/01/16 10:43:13;;;;;;;98.95;50.42;;;5.10;99.90;;;;;;5036941;28;20103;-81
2022/01/16 10:45:44;;;;;;;99.45;51.67;;;5.20;99.90;;;;;;5021003;28;20079;-81
2022/01/16 10:48:11;;;;;;;104.35;51.92;;;5.10;99.90;;;;;;5020741;28;20045;-81
2022/01/16 10:50:40;;;;;;;99.15;50.55;;;5.20;99.90;;;;;;5004199;28;20123;-81
2022/01/16 10:53:17;;;;;;;95.40;48.83;;;5.20;99.90;;;;;;5037164;28;20060;-81
2022/01/16 10:55:55;;;;;;;94.72;48.80;;;5.20;99.90;;;;;;5012890;28;20044;-80
2022/01/16 10:58:25;;;;;;;96.72;51.33;;;5.20;99.90;;;;;;5036911;28;20477;-80
2022/01/16 11:01:03;;;;;;;89.30;47.70;;;5.20;99.90;;;;;;5020133;28;20044;-80
2022/01/16 11:03:41;;;;;;;87.53;46.28;;;5.30;99.90;;;;;;5020240;28;20515;-80
2022/01/16 11:06:06;;;;;;;89.82;47.35;;;5.30;99.90;;;;;;5032082;28;20040;-82
2022/01/16 11:08:33;;;;;;;84.53;46.95;;;5.30;99.90;;;;;;5036795;28;20037;-81
2022/01/16 11:11:00;;;;;;;85.65;45.33;;;5.30;99.90;;;;;;5019293;28;20094;-81
2022/01/16 11:13:30;;;;;;;85.53;46.65;;;5.40;99.90;;;;;;5016913;28;20045;-81
2022/01/16 11:16:03;;;;;;;78.53;43.58;;;5.30;99.90;;;;;;5019492;28;20045;-81
2022/01/16 11:18:29;;;;;;;81.55;43.35;;;5.40;99.90;;;;;;5032864;28;20083;-81
2022/01/16 11:21:08;;;;;;;75.95;43.53;;;5.40;99.90;;;;;;5034649;28;20147;-81
2022/01/16 11:23:59;;;;;;;77.07;43.00;;;5.40;99.90;;;;;;5017518;28;20095;-81
2022/01/16 11:26:27;;;;;;;74.35;40.80;;;5.50;99.90;;;;;;5026687;28;20048;-80
2022/01/16 11:28:54;;;;;;;66.40;40.95;;;5.60;99.90;;;;;;5017481;28;20094;-81
2022/01/16 11:31:21;;;;;;;70.53;40.03;;;5.60;99.90;;;;;;5033343;28;20249;-81
2022/01/16 11:33:47;;;;;;;68.97;39.78;;;5.60;99.90;;;;;;5017661;28;20045;-81
2022/01/16 11:36:17;;;;;;;61.80;37.17;;;5.70;99.90;;;;;;5010509;28;20041;-81
2022/01/16 11:38:51;;;;;;;64.63;37.60;;;5.60;99.90;;;;;;5017126;28;20455;-81
2022/01/16 11:41:25;;;;;;;59.08;33.97;;;5.70;99.90;;;;;;5033796;28;20331;-81
2022/01/16 11:43:55;;;;;;;57.00;33.30;;;5.70;99.90;;;;;;5017802;28;20404;-81
2022/01/16 11:46:23;;;;;;;46.92;29.08;;;5.70;99.90;;;;;;5001009;28;20119;-81
2022/01/16 11:49:05;;;;;;;51.10;29.95;;;5.80;99.90;;;;;;5034044;28;20044;-81
2022/01/16 11:51:37;;;;;;;47.30;28.65;;;5.80;99.90;;;;;;5033500;28;20504;-81
2022/01/16 11:54:10;;;;;;;43.45;27.23;;;5.80;99.90;;;;;;5017125;28;20061;-81
2022/01/16 11:56:41;;;;;;;43.88;25.50;;;5.80;99.90;;;;;;5006085;28;20060;-81
2022/01/16 11:59:34;;;;;;;42.08;24.88;;;5.90;99.90;;;;;;5028664;28;20055;-81
2022/01/16 12:02:01;;;;;;;;;;;6.00;99.90;;;;;;5032809;28;20029;-81
2022/01/16 12:04:29;;;;;;;36.50;21.80;;;6.00;99.90;;;;;;5016206;28;19979;-81
2022/01/16 12:07:01;;;;;;;35.75;21.42;;;6.00;99.90;;;;;;5016939;28;20047;-81
2022/01/16 12:09:51;;;;;;;31.63;17.38;;;6.10;99.90;;;;;;5018173;28;20055;-81
2022/01/16 12:12:16;;;;;;;38.63;20.70;;;6.10;99.90;;;;;;5005599;28;20053;-81
2022/01/16 12:14:59;;;;;;;37.88;21.20;;;6.10;99.90;;;;;;5015543;28;20175;-81
2022/01/16 12:17:43;;;;;;;37.78;21.05;;;6.10;99.90;;;;;;5024335;28;20047;-81
2022/01/16 12:20:13;;;;;;;38.08;18.73;;;6.10;99.90;;;;;;5018934;28;20047;-81
2022/01/16 12:22:50;;;;;;;33.88;18.70;;;6.10;99.90;;;;;;5018930;28;20068;-81
2022/01/16 12:25:22;;;;;;;33.47;16.73;;;6.10;99.90;;;;;;5018636;28;20032;-81
2022/01/16 12:27:57;;;;;;;26.50;16.23;;;6.10;99.90;;;;;;5015750;28;20041;-81
2022/01/16 12:30:33;;;;;;;29.55;15.98;;;6.20;99.90;;;;;;5017132;28;20047;-81
2022/01/16 12:33:27;;;;;;;29.98;16.08;;;6.20;99.90;;;;;;5018795;28;20453;-81
2022/01/16 12:35:54;;;;;;;25.42;13.82;;;6.20;99.90;;;;;;5018929;28;20102;-81
2022/01/16 12:38:35;;;;;;;27.67;13.60;;;6.20;99.90;;;;;;5035445;28;20071;-81
2022/01/16 12:41:17;;;;;;;24.83;13.50;;;6.30;99.90;;;;;;5034317;28;20512;-81
2022/01/16 12:43:55;;;;;;;23.63;13.70;;;6.30;99.90;;;;;;5035388;28;20130;-81
2022/01/16 12:46:25;;;;;;;24.58;12.73;;;6.30;99.90;;;;;;5035075;28;20073;-81
2022/01/16 12:48:53;;;;;;;22.13;12.30;;;6.30;99.90;;;;;;5035218;28;20044;-81
2022/01/16 12:51:24;;;;;;;24.70;12.95;;;6.30;99.90;;;;;;5018471;28;20048;-81
2022/01/16 12:53:55;;;;;;;24.85;12.38;;;6.40;99.90;;;;;;5015116;28;20058;-81
2022/01/16 12:56:37;;;;;;;24.63;12.68;;;6.30;99.90;;;;;;5010348;28;20100;-81
2022/01/16 12:59:11;;;;;;;21.13;12.93;;;6.40;99.90;;;;;;4995908;28;20037;-81
2022/01/16 13:01:42;;;;;;;22.35;12.98;;;6.40;99.90;;;;;;5011836;28;20077;-81
2022/01/16 13:04:17;;;;;;;20.15;12.43;;;6.40;99.90;;;;;;4996477;28;20045;-81
2022/01/16 13:06:43;;;;;;;21.42;12.27;;;6.40;99.90;;;;;;5010052;28;20397;-81
2022/01/16 13:09:10;;;;;;;22.75;12.95;;;6.30;99.90;;;;;;5031692;28;20052;-81
2022/01/16 13:11:38;;;;;;;22.27;12.95;;;6.40;99.90;;;;;;5030869;28;20563;-81
2022/01/16 13:14:16;;;;;;;24.27;13.10;;;6.40;99.90;;;;;;5031548;28;20081;-81
2022/01/16 13:16:47;;;;;;;26.75;13.05;;;6.40;99.90;;;;;;5031399;28;20056;-81
2022/01/16 13:19:25;;;;;;;23.80;13.27;;;6.40;99.90;;;;;;5031602;28;20056;-81